createdAt,value
2022-11-10T00:01:42.026Z,81.60
2022-11-10T00:13:19.851Z,80.40
2022-11-10T02:20:29.985Z,78.70
2022-11-10T02:32:19.152Z,89.22
2022-11-10T03:06:07.710Z,88.10
2022-11-10T03:52:12.038Z,90.35
2022-11-10T04:03:58.112Z,87.75
2022-11-10T04:32:02.344Z,91.20
2022-11-10T04:35:20.763Z,80.68
2022-11-10T04:42:50.406Z,88.03
2022-11-10T04:45:50.677Z,88.40
2022-11-10T04:48:50.010Z,79.95
2022-11-10T04:51:39.284Z,89.50
2022-11-10T04:54:26.443Z,89.57
2022-11-10T04:57:13.349Z,89.45
2022-11-10T05:00:00.047Z,79.40
2022-11-10T05:02:48.689Z,88.30
2022-11-10T05:05:36.250Z,79.35
2022-11-10T05:08:22.873Z,98.32
2022-11-10T05:11:10.200Z,88.22
2022-11-10T05:13:57.148Z,103.53
2022-11-10T05:16:50.891Z,94.68
2022-11-10T05:19:43.479Z,93.93
2022-11-10T05:22:30.421Z,91.47
2022-11-10T05:25:17.253Z,103.95
2022-11-10T05:28:04.660Z,97.40
2022-11-10T05:30:51.632Z,102.90
2022-11-10T05:33:39.438Z,99.43
2022-11-10T05:36:27.832Z,93.32
2022-11-10T05:39:14.547Z,110.50
2022-11-10T05:42:01.142Z,109.47
2022-11-10T05:44:47.724Z,108.28
2022-11-10T05:47:36.957Z,97.18
2022-11-10T05:50:25.098Z,101.93
2022-11-10T05:53:13.381Z,100.85
2022-11-10T05:55:59.985Z,106.80
2022-11-10T05:58:47.043Z,111.10
2022-11-10T06:01:34.044Z,102.68
2022-11-10T06:04:21.056Z,123.45
2022-11-10T06:07:08.173Z,102.70
2022-11-10T06:09:56.365Z,107.07
2022-11-10T06:12:43.146Z,115.15
2022-11-10T06:15:29.797Z,118.13
2022-11-10T06:18:16.617Z,114.88
2022-11-10T06:21:03.428Z,120.13
2022-11-10T06:23:50.124Z,122.10
2022-11-10T06:26:38.202Z,112.57
2022-11-10T06:29:27.012Z,119.13
2022-11-10T06:32:14.100Z,126.15
2022-11-10T06:35:01.105Z,130.50
2022-11-10T06:37:48.205Z,122.88
2022-11-10T06:40:35.270Z,137.52
2022-11-10T06:43:23.635Z,118.97
2022-11-10T06:46:10.676Z,127.80
2022-11-10T06:48:57.249Z,128.55
2022-11-10T06:51:44.008Z,143.57
2022-11-10T06:54:30.668Z,135.38
2022-11-10T06:57:17.315Z,141.13
2022-11-10T07:00:06.901Z,130.80
2022-11-10T07:03:00.969Z,131.13
2022-11-10T07:05:47.784Z,135.32
2022-11-10T07:08:34.536Z,131.25
2022-11-10T07:11:21.287Z,146.07
2022-11-10T07:14:08.304Z,144.60
2022-11-10T07:16:56.343Z,144.52
2022-11-10T07:19:50.084Z,150.85
2022-11-10T07:22:37.611Z,161.23
2022-11-10T07:25:24.104Z,156.35
2022-11-10T07:28:11.685Z,165.70
2022-11-10T07:30:58.877Z,150.63
2022-11-10T07:33:54.403Z,154.82
2022-11-10T07:36:41.640Z,154.65
2022-11-10T07:39:28.686Z,148.93
2022-11-10T07:42:18.811Z,170.75
2022-11-10T07:45:09.379Z,158.50
2022-11-10T07:48:00.709Z,156.18
2022-11-10T07:50:49.254Z,152.75
2022-11-10T07:53:44.510Z,172.38
2022-11-10T07:56:31.506Z,155.63
2022-11-10T07:59:18.077Z,158.43
2022-11-10T08:02:04.772Z,163.68
2022-11-10T08:04:51.580Z,163.43
2022-11-10T08:07:41.258Z,173.40
2022-11-10T08:10:28.369Z,199.23
2022-11-10T08:13:19.010Z,176.82
2022-11-10T08:16:06.516Z,170.60
2022-11-10T08:18:53.417Z,182.05
2022-11-10T08:21:40.001Z,160.45
2022-11-10T08:24:28.467Z,162.55
2022-11-10T08:27:15.423Z,162.23
2022-11-10T08:30:03.268Z,186.70
2022-11-10T08:32:50.253Z,178.35
2022-11-10T08:35:40.472Z,189.38
2022-11-10T08:38:27.156Z,165.85
2022-11-10T08:41:15.949Z,180.90
2022-11-10T08:44:02.904Z,174.25
2022-11-10T08:46:49.659Z,174.80
2022-11-10T08:49:36.571Z,174.65
2022-11-10T08:52:23.367Z,173.43
2022-11-10T08:55:10.503Z,171.68
2022-11-10T08:58:02.630Z,167.40
2022-11-10T09:00:50.233Z,182.73
2022-11-10T09:03:37.122Z,167.15
2022-11-10T09:06:23.957Z,174.27
2022-11-10T09:09:10.884Z,162.00
2022-11-10T09:11:57.641Z,189.70
2022-11-10T09:14:45.695Z,176.18
2022-11-10T09:17:33.549Z,167.50
2022-11-10T09:20:20.577Z,172.43
2022-11-10T09:23:08.806Z,162.50
2022-11-10T09:25:57.208Z,143.15
2022-11-10T09:28:44.157Z,166.05
2022-11-10T09:31:32.287Z,172.13
2022-11-10T09:34:19.156Z,156.23
2022-11-10T09:37:05.998Z,157.57
2022-11-10T09:39:53.037Z,155.25
2022-11-10T09:42:42.739Z,161.52
2022-11-10T09:45:38.914Z,165.70
2022-11-10T09:48:31.805Z,157.30
2022-11-10T09:51:22.042Z,145.75
2022-11-10T09:54:25.245Z,164.82
2022-11-10T09:57:15.561Z,153.90
2022-11-10T10:00:02.143Z,149.32
2022-11-10T10:02:55.033Z,126.45
2022-11-10T10:05:55.781Z,161.68
2022-11-10T10:08:53.483Z,158.85
2022-11-10T10:11:53.316Z,146.70
2022-11-10T10:14:52.552Z,127.97
2022-11-10T10:17:49.504Z,130.18
2022-11-10T10:20:47.211Z,144.27
2022-11-10T10:26:50.575Z,132.27
2022-11-10T10:29:41.033Z,126.45
2022-11-10T10:32:28.519Z,135.07
2022-11-10T10:35:16.799Z,119.13
2022-11-10T10:38:05.604Z,116.55
2022-11-10T10:40:57.924Z,115.50
2022-11-10T10:43:49.030Z,118.13
2022-11-10T10:46:46.229Z,125.40
2022-11-10T10:49:34.649Z,120.65
2022-11-10T10:52:25.084Z,122.28
2022-11-10T10:55:14.360Z,106.90
2022-11-10T10:58:04.439Z,102.95
2022-11-10T11:00:53.598Z,106.68
2022-11-10T11:03:43.859Z,92.97
2022-11-10T11:06:32.155Z,100.93
2022-11-10T11:09:28.803Z,98.13
2022-11-10T11:12:28.297Z,91.60
2022-11-10T11:15:25.840Z,93.45
2022-11-10T11:18:16.052Z,93.03
2022-11-10T11:21:08.341Z,84.85
2022-11-10T11:24:06.395Z,72.75
2022-11-10T11:27:00.599Z,85.43
2022-11-10T11:30:06.035Z,78.50
2022-11-10T11:33:06.863Z,69.20
2022-11-10T11:36:02.796Z,70.75
2022-11-10T11:38:57.291Z,76.88
2022-11-10T11:41:49.502Z,66.10
2022-11-10T11:44:50.518Z,67.50
2022-11-10T11:48:05.821Z,67.05
2022-11-10T11:50:57.785Z,67.15
2022-11-10T11:54:00.941Z,66.28
2022-11-10T11:56:51.874Z,61.95
2022-11-10T12:00:07.027Z,58.00
2022-11-10T12:03:11.388Z,55.83
2022-11-10T12:06:23.814Z,58.97
2022-11-10T12:09:18.680Z,61.63
2022-11-10T12:12:27.168Z,52.92
2022-11-10T12:15:26.180Z,54.70
2022-11-10T12:18:26.454Z,46.85
2022-11-10T12:21:25.994Z,49.65
2022-11-10T12:24:27.350Z,44.42
2022-11-10T12:27:18.997Z,44.08
2022-11-10T12:30:10.919Z,47.13
2022-11-10T12:33:03.627Z,41.08
2022-11-10T12:35:53.035Z,41.45
2022-11-10T12:38:59.682Z,40.13
2022-11-10T12:41:50.901Z,38.30
2022-11-10T12:44:44.655Z,39.20
2022-11-10T12:47:48.406Z,42.00
2022-11-10T12:50:50.646Z,38.25
2022-11-10T12:53:40.947Z,33.85
2022-11-10T12:56:35.329Z,39.53
2022-11-10T13:00:00.566Z,27.80
2022-11-10T13:02:48.213Z,25.80
2022-11-10T13:05:38.822Z,25.05
2022-11-10T13:08:35.614Z,29.13
2022-11-10T13:11:27.351Z,25.02
2022-11-10T13:14:33.389Z,29.17
2022-11-10T13:17:55.081Z,24.25
2022-11-10T13:21:00.903Z,29.25
2022-11-10T13:24:24.532Z,27.00
2022-11-10T13:27:34.706Z,32.10
2022-11-10T13:30:45.607Z,26.58
2022-11-10T13:33:37.143Z,29.10
2022-11-10T13:36:38.352Z,27.77
2022-11-10T13:39:27.625Z,22.30
2022-11-10T13:42:19.978Z,26.42
2022-11-10T13:45:29.799Z,24.73
2022-11-10T13:48:49.953Z,25.10
2022-11-10T13:51:45.389Z,26.48
2022-11-10T13:54:54.975Z,24.20
2022-11-10T13:57:53.344Z,27.27
2022-11-10T14:00:49.149Z,24.80
2022-11-10T14:04:09.588Z,27.38
2022-11-10T14:07:14.417Z,34.33
2022-11-10T14:13:13.949Z,22.17
2022-11-10T14:16:01.174Z,25.40
2022-11-10T14:18:55.624Z,22.42
2022-11-10T14:21:47.367Z,23.38
2022-11-10T14:24:54.096Z,25.48
2022-11-10T14:27:41.200Z,24.42
2022-11-10T14:30:29.602Z,25.58
2022-11-10T14:33:16.831Z,21.83
2022-11-10T14:36:06.307Z,27.08
2022-11-10T14:42:20.293Z,21.88
2022-11-10T14:45:09.143Z,20.77
2022-11-10T14:47:57.788Z,18.23
2022-11-10T14:50:45.224Z,22.52
2022-11-10T14:53:35.899Z,22.23
2022-11-10T14:56:37.598Z,27.48
2022-11-10T14:59:29.700Z,22.45
2022-11-10T15:02:19.917Z,20.27
2022-11-10T15:05:07.172Z,23.67
2022-11-10T15:08:02.797Z,25.17
2022-11-10T15:10:53.390Z,21.95
2022-11-10T15:13:40.845Z,27.20
2022-11-10T15:19:56.352Z,29.00
2022-11-10T15:22:43.448Z,23.52
2022-11-10T15:25:37.057Z,22.27
2022-11-10T15:32:25.616Z,26.15
2022-11-10T15:35:38.134Z,30.20
2022-11-10T15:38:35.585Z,28.05
2022-11-10T15:41:27.697Z,31.63
2022-11-10T15:44:20.666Z,33.13
2022-11-10T15:47:08.070Z,33.53
2022-11-10T15:49:56.230Z,31.17
2022-11-10T15:52:43.343Z,31.27
2022-11-10T15:55:55.521Z,34.53
2022-11-10T15:58:42.967Z,37.30
2022-11-10T16:01:31.697Z,30.00
2022-11-10T16:04:18.465Z,34.63
2022-11-10T16:07:07.093Z,32.70
2022-11-10T16:09:53.666Z,33.33
2022-11-10T16:12:40.750Z,34.58
2022-11-10T16:15:27.418Z,41.55
2022-11-10T16:18:15.849Z,38.70
2022-11-10T16:21:02.836Z,46.92
2022-11-10T16:23:53.047Z,46.85
2022-11-10T16:26:40.259Z,40.42
2022-11-10T16:29:30.642Z,45.30
2022-11-10T16:32:17.849Z,41.33
2022-11-10T16:35:04.969Z,49.30
2022-11-10T16:37:51.829Z,40.92
2022-11-10T16:40:40.080Z,43.45
2022-11-10T16:43:28.212Z,48.08
2022-11-10T16:46:31.035Z,45.65
2022-11-10T16:49:27.602Z,42.45
2022-11-10T16:52:16.566Z,47.42
2022-11-10T16:55:04.026Z,46.35
2022-11-10T16:58:00.998Z,42.60
2022-11-10T17:00:49.465Z,49.17
2022-11-10T17:03:40.258Z,45.20
2022-11-10T17:06:29.205Z,47.83
2022-11-10T17:09:19.495Z,45.58
2022-11-10T17:12:07.212Z,43.28
2022-11-10T17:15:10.886Z,47.72
2022-11-10T17:18:02.168Z,54.45
2022-11-10T17:20:53.453Z,52.67
2022-11-10T17:23:40.750Z,46.40
2022-11-10T17:26:27.882Z,50.17
2022-11-10T17:29:19.663Z,40.60
2022-11-10T17:32:43.127Z,44.33
2022-11-10T17:35:32.343Z,41.33
2022-11-10T17:38:25.257Z,42.80
2022-11-10T17:41:17.172Z,54.30
2022-11-10T17:44:03.940Z,38.03
2022-11-10T17:46:50.684Z,39.40
2022-11-10T17:49:42.782Z,54.08
2022-11-10T17:52:29.851Z,43.83
2022-11-10T17:55:20.699Z,48.05
2022-11-10T17:58:07.768Z,44.90
2022-11-10T18:00:55.658Z,48.70
2022-11-10T18:03:42.553Z,50.85
2022-11-10T18:06:34.249Z,44.63
2022-11-10T18:09:24.311Z,45.20
2022-11-10T18:12:13.487Z,47.05
2022-11-10T18:15:00.406Z,54.42
2022-11-10T18:17:47.542Z,46.92
2022-11-10T18:20:34.552Z,52.20
2022-11-10T18:23:25.058Z,53.53
2022-11-10T18:26:13.202Z,52.65
2022-11-10T18:29:00.273Z,47.42
2022-11-10T18:31:47.120Z,47.33
2022-11-10T18:34:34.063Z,45.47
2022-11-10T18:37:21.133Z,51.17
2022-11-10T18:40:11.222Z,51.42
2022-11-10T18:43:01.755Z,48.75
2022-11-10T18:45:54.059Z,49.65
2022-11-10T18:48:43.929Z,53.35
2022-11-10T18:51:32.212Z,49.38
2022-11-10T18:54:19.454Z,52.05
2022-11-10T18:57:07.833Z,52.03
2022-11-10T18:59:54.759Z,52.10
2022-11-10T19:02:43.312Z,44.05
2022-11-10T19:05:31.169Z,48.90
2022-11-10T19:08:26.048Z,54.03
2022-11-10T19:11:16.298Z,45.90
2022-11-10T19:14:07.871Z,48.00
2022-11-10T19:16:55.570Z,50.88
2022-11-10T19:19:43.508Z,51.10
2022-11-10T19:22:58.462Z,47.22
2022-11-10T19:25:45.389Z,46.72
2022-11-10T19:28:58.645Z,52.03
2022-11-10T19:31:55.839Z,45.03
2022-11-10T19:34:43.320Z,62.72
2022-11-10T19:41:34.065Z,53.17
2022-11-10T19:44:21.144Z,55.22
2022-11-10T19:47:09.709Z,48.60
2022-11-10T19:50:01.762Z,50.33
2022-11-10T19:52:48.873Z,56.58
2022-11-10T19:55:38.908Z,56.75
2022-11-10T19:58:27.475Z,60.17
2022-11-10T20:01:22.773Z,63.83
2022-11-10T20:04:19.869Z,54.22
2022-11-10T20:07:24.518Z,56.95
2022-11-10T20:10:13.603Z,60.75
2022-11-10T20:13:04.881Z,53.45
2022-11-10T20:16:03.950Z,62.65
2022-11-10T20:18:52.144Z,59.58
2022-11-10T20:21:40.381Z,56.60
2022-11-10T20:24:52.378Z,54.63
2022-11-10T20:27:45.559Z,54.55
2022-11-10T20:30:33.474Z,59.30
2022-11-10T20:33:37.752Z,47.70
2022-11-10T20:39:31.927Z,60.92
2022-11-10T20:42:18.775Z,57.22
2022-11-10T20:45:06.795Z,63.95
2022-11-10T20:47:53.749Z,56.55
2022-11-10T20:50:41.879Z,54.28
2022-11-10T20:53:39.018Z,54.03
2022-11-10T20:56:29.848Z,56.13
2022-11-10T20:59:21.114Z,58.60
2022-11-10T21:02:13.360Z,63.35
2022-11-10T21:05:29.354Z,60.30
2022-11-10T21:08:16.594Z,60.38
2022-11-10T21:11:09.397Z,56.67
2022-11-10T21:13:57.124Z,70.72
2022-11-10T21:16:44.462Z,61.10
2022-11-10T21:19:53.680Z,63.70
2022-11-10T21:23:11.762Z,64.60
2022-11-10T21:26:02.205Z,71.15
2022-11-10T21:28:55.069Z,69.68
2022-11-10T21:32:28.550Z,70.93
2022-11-10T21:35:17.691Z,66.72
2022-11-10T21:38:04.994Z,60.10
2022-11-10T21:40:55.626Z,82.32
2022-11-10T21:43:46.914Z,65.20
2022-11-10T21:46:34.576Z,66.20
2022-11-10T21:49:22.563Z,65.95
2022-11-10T21:52:35.494Z,61.67
2022-11-10T21:55:22.604Z,61.10
2022-11-10T21:58:09.829Z,67.28
2022-11-10T22:01:02.348Z,67.68
2022-11-10T22:03:50.211Z,66.35
2022-11-10T22:06:54.238Z,69.15
2022-11-10T22:10:00.028Z,68.25
2022-11-10T22:13:03.959Z,69.65
2022-11-10T22:16:11.576Z,70.95
2022-11-10T22:18:58.888Z,69.95
2022-11-10T22:21:45.833Z,78.38
2022-11-10T22:24:46.573Z,79.65
2022-11-10T22:27:33.619Z,79.03
2022-11-10T22:30:20.566Z,74.63
2022-11-10T22:36:25.394Z,71.65
2022-11-10T22:39:12.426Z,70.00
2022-11-10T22:42:22.477Z,71.60
2022-11-10T22:49:04.124Z,71.25
2022-11-10T22:51:52.663Z,64.75
2022-11-10T22:57:42.005Z,69.22
2022-11-10T23:04:01.663Z,73.93
2022-11-10T23:06:58.350Z,74.38
2022-11-10T23:09:51.578Z,73.53
2022-11-10T23:12:38.563Z,67.07
2022-11-10T23:15:58.814Z,75.25
2022-11-10T23:18:52.399Z,71.25
2022-11-10T23:21:53.411Z,67.38
2022-11-10T23:24:54.235Z,74.30
2022-11-10T23:27:53.525Z,67.03
2022-11-10T23:31:04.430Z,70.78
2022-11-10T23:34:00.529Z,74.05
2022-11-10T23:36:47.665Z,68.28
2022-11-10T23:39:34.973Z,76.20
2022-11-10T23:42:40.511Z,66.32
2022-11-10T23:49:17.754Z,76.03
2022-11-10T23:56:12.707Z,66.65
2022-11-10T23:59:00.693Z,63.72
